sensor_id;sensor_type;location;lat;lon;timestamp;pressure;altitude;pressure_sealevel;temperature;humidity
76126;BME280;65174;48.138;21.002;2023-03-23T00:01:21;99257.09;;;9.36;65.48
76126;BME280;65174;48.138;21.002;2023-03-23T00:04:23;99242.84;;;9.30;65.64
76126;BME280;65174;48.138;21.002;2023-03-23T00:07:26;99256.44;;;9.32;65.95
76126;BME280;65174;48.138;21.002;2023-03-23T00:10:28;99249.75;;;9.30;66.27
76126;BME280;65174;48.138;21.002;2023-03-23T00:13:33;99252.69;;;9.24;66.47
76126;BME280;65174;48.138;21.002;2023-03-23T00:16:34;99247.91;;;9.18;66.85
76126;BME280;65174;48.138;21.002;2023-03-23T00:19:38;99250.16;;;9.50;66.13
76126;BME280;65174;48.138;21.002;2023-03-23T00:22:46;99233.44;;;9.43;65.72
76126;BME280;65174;48.138;21.002;2023-03-23T00:25:48;99240.19;;;9.32;66.56
76126;BME280;65174;48.138;21.002;2023-03-23T00:28:50;99243.97;;;9.12;66.84
76126;BME280;65174;48.138;21.002;2023-03-23T00:31:52;99248.97;;;9.15;67.00
76126;BME280;65174;48.138;21.002;2023-03-23T00:34:54;99248.41;;;8.68;68.24
76126;BME280;65174;48.138;21.002;2023-03-23T00:37:57;99240.09;;;8.35;69.41
76126;BME280;65174;48.138;21.002;2023-03-23T00:41:01;99250.38;;;8.19;70.25
76126;BME280;65174;48.138;21.002;2023-03-23T00:44:03;99244.22;;;8.08;70.81
76126;BME280;65174;48.138;21.002;2023-03-23T00:47:04;99244.97;;;7.94;71.38
76126;BME280;65174;48.138;21.002;2023-03-23T00:50:05;99236.41;;;7.79;72.07
76126;BME280;65174;48.138;21.002;2023-03-23T00:53:07;99229.97;;;7.72;72.42
76126;BME280;65174;48.138;21.002;2023-03-23T00:56:08;99229.97;;;7.57;73.10
76126;BME280;65174;48.138;21.002;2023-03-23T00:59:09;99235.31;;;7.54;72.89
76126;BME280;65174;48.138;21.002;2023-03-23T01:02:10;99228.84;;;7.47;73.40
76126;BME280;65174;48.138;21.002;2023-03-23T01:05:11;99230.50;;;7.32;74.00
76126;BME280;65174;48.138;21.002;2023-03-23T01:08:14;99226.69;;;7.23;74.24
76126;BME280;65174;48.138;21.002;2023-03-23T01:11:16;99222.03;;;7.14;74.69
76126;BME280;65174;48.138;21.002;2023-03-23T01:14:18;99226.53;;;7.27;74.47
76126;BME280;65174;48.138;21.002;2023-03-23T01:17:20;99214.19;;;7.17;74.85
76126;BME280;65174;48.138;21.002;2023-03-23T01:20:23;99228.25;;;7.26;74.72
76126;BME280;65174;48.138;21.002;2023-03-23T01:23:24;99229.09;;;7.27;75.00
76126;BME280;65174;48.138;21.002;2023-03-23T01:26:27;99235.03;;;7.27;74.68
76126;BME280;65174;48.138;21.002;2023-03-23T01:29:29;99220.22;;;7.16;74.55
76126;BME280;65174;48.138;21.002;2023-03-23T01:32:30;99230.25;;;7.21;74.67
76126;BME280;65174;48.138;21.002;2023-03-23T01:35:31;99224.78;;;7.11;75.02
76126;BME280;65174;48.138;21.002;2023-03-23T01:38:33;99221.63;;;7.38;75.08
76126;BME280;65174;48.138;21.002;2023-03-23T01:41:35;99223.13;;;7.42;74.90
76126;BME280;65174;48.138;21.002;2023-03-23T01:48:01;99218.16;;;7.23;75.22
76126;BME280;65174;48.138;21.002;2023-03-23T01:51:10;99223.72;;;7.15;75.62
76126;BME280;65174;48.138;21.002;2023-03-23T01:54:15;99224.38;;;7.19;75.48
76126;BME280;65174;48.138;21.002;2023-03-23T01:57:23;99220.22;;;7.16;75.43
76126;BME280;65174;48.138;21.002;2023-03-23T02:00:30;99222.28;;;7.26;75.52
76126;BME280;65174;48.138;21.002;2023-03-23T02:03:32;99224.03;;;7.41;75.21
76126;BME280;65174;48.138;21.002;2023-03-23T02:06:33;99219.56;;;7.44;74.89
76126;BME280;65174;48.138;21.002;2023-03-23T02:09:55;99226.41;;;7.44;75.15
76126;BME280;65174;48.138;21.002;2023-03-23T02:12:58;99227.66;;;7.52;75.41
76126;BME280;65174;48.138;21.002;2023-03-23T02:20:06;99227.97;;;7.77;74.93
76126;BME280;65174;48.138;21.002;2023-03-23T02:36:40;99234.81;;;8.22;73.47
76126;BME280;65174;48.138;21.002;2023-03-23T02:39:51;99247.06;;;8.17;73.65
76126;BME280;65174;48.138;21.002;2023-03-23T02:42:55;99242.13;;;8.14;73.94
76126;BME280;65174;48.138;21.002;2023-03-23T02:45:58;99229.56;;;7.94;74.64
76126;BME280;65174;48.138;21.002;2023-03-23T02:49:02;99228.91;;;8.06;74.29
76126;BME280;65174;48.138;21.002;2023-03-23T02:52:10;99232.69;;;8.15;73.66
76126;BME280;65174;48.138;21.002;2023-03-23T02:55:14;99235.72;;;8.21;73.34
76126;BME280;65174;48.138;21.002;2023-03-23T02:58:17;99238.38;;;8.20;73.61
76126;BME280;65174;48.138;21.002;2023-03-23T03:04:26;99243.88;;;8.14;73.92
76126;BME280;65174;48.138;21.002;2023-03-23T03:11:14;99239.53;;;8.30;73.12
76126;BME280;65174;48.138;21.002;2023-03-23T03:14:24;99240.94;;;8.20;73.35
76126;BME280;65174;48.138;21.002;2023-03-23T03:17:30;99235.88;;;8.04;73.72
76126;BME280;65174;48.138;21.002;2023-03-23T03:20:35;99251.19;;;8.06;74.13
76126;BME280;65174;48.138;21.002;2023-03-23T03:23:42;99249.31;;;7.93;74.93
76126;BME280;65174;48.138;21.002;2023-03-23T03:26:48;99249.03;;;7.98;74.52
76126;BME280;65174;48.138;21.002;2023-03-23T03:30:04;99253.16;;;8.16;73.94
76126;BME280;65174;48.138;21.002;2023-03-23T03:33:08;99250.59;;;8.00;74.37
76126;BME280;65174;48.138;21.002;2023-03-23T03:36:15;99254.72;;;8.19;74.04
76126;BME280;65174;48.138;21.002;2023-03-23T03:39:16;99244.59;;;8.31;73.17
76126;BME280;65174;48.138;21.002;2023-03-23T03:42:27;99223.47;;;8.26;72.76
76126;BME280;65174;48.138;21.002;2023-03-23T03:45:28;99246.81;;;8.51;72.35
76126;BME280;65174;48.138;21.002;2023-03-23T03:48:30;99250.13;;;8.53;72.28
76126;BME280;65174;48.138;21.002;2023-03-23T03:51:31;99251.81;;;8.68;71.63
76126;BME280;65174;48.138;21.002;2023-03-23T03:54:33;99257.69;;;8.56;72.22
76126;BME280;65174;48.138;21.002;2023-03-23T03:57:34;99256.94;;;8.54;71.91
76126;BME280;65174;48.138;21.002;2023-03-23T04:00:38;99253.22;;;8.30;73.04
76126;BME280;65174;48.138;21.002;2023-03-23T04:03:40;99263.31;;;8.18;73.17
76126;BME280;65174;48.138;21.002;2023-03-23T04:06:53;99255.13;;;8.27;73.31
76126;BME280;65174;48.138;21.002;2023-03-23T04:09:54;99264.31;;;8.15;73.67
76126;BME280;65174;48.138;21.002;2023-03-23T04:12:56;99268.09;;;8.25;73.22
76126;BME280;65174;48.138;21.002;2023-03-23T04:16:16;99262.25;;;8.22;73.72
76126;BME280;65174;48.138;21.002;2023-03-23T04:19:19;99268.38;;;8.35;72.90
76126;BME280;65174;48.138;21.002;2023-03-23T04:22:20;99259.47;;;8.40;72.68
76126;BME280;65174;48.138;21.002;2023-03-23T04:25:21;99262.97;;;8.53;71.76
76126;BME280;65174;48.138;21.002;2023-03-23T04:28:25;99269.34;;;8.62;71.55
76126;BME280;65174;48.138;21.002;2023-03-23T04:31:46;99270.16;;;8.62;71.79
76126;BME280;65174;48.138;21.002;2023-03-23T04:34:58;99273.13;;;8.70;71.41
76126;BME280;65174;48.138;21.002;2023-03-23T04:38:15;99270.16;;;8.62;71.72
76126;BME280;65174;48.138;21.002;2023-03-23T04:41:21;99273.00;;;8.58;71.78
76126;BME280;65174;48.138;21.002;2023-03-23T04:44:42;99266.28;;;8.55;72.01
76126;BME280;65174;48.138;21.002;2023-03-23T04:47:49;99262.09;;;8.54;71.57
76126;BME280;65174;48.138;21.002;2023-03-23T04:51:01;99270.41;;;8.44;72.09
76126;BME280;65174;48.138;21.002;2023-03-23T04:54:04;99278.56;;;8.36;72.51
76126;BME280;65174;48.138;21.002;2023-03-23T04:57:06;99273.97;;;8.27;72.83
76126;BME280;65174;48.138;21.002;2023-03-23T05:00:14;99275.97;;;8.36;72.38
76126;BME280;65174;48.138;21.002;2023-03-23T05:03:23;99278.59;;;8.50;72.07
76126;BME280;65174;48.138;21.002;2023-03-23T05:06:28;99268.66;;;8.44;71.85
76126;BME280;65174;48.138;21.002;2023-03-23T05:09:34;99281.91;;;8.52;71.35
76126;BME280;65174;48.138;21.002;2023-03-23T05:12:38;99283.44;;;8.55;71.52
76126;BME280;65174;48.138;21.002;2023-03-23T05:15:41;99295.78;;;8.64;71.42
76126;BME280;65174;48.138;21.002;2023-03-23T05:18:43;99289.38;;;8.71;70.99
76126;BME280;65174;48.138;21.002;2023-03-23T05:21:46;99289.94;;;8.32;72.45
76126;BME280;65174;48.138;21.002;2023-03-23T05:24:47;99287.69;;;7.81;74.64
76126;BME280;65174;48.138;21.002;2023-03-23T05:27:48;99289.44;;;7.65;75.75
76126;BME280;65174;48.138;21.002;2023-03-23T05:31:12;99290.59;;;7.75;74.33
76126;BME280;65174;48.138;21.002;2023-03-23T05:34:14;99292.50;;;7.87;73.99
76126;BME280;65174;48.138;21.002;2023-03-23T05:37:28;99284.84;;;8.01;73.55
76126;BME280;65174;48.138;21.002;2023-03-23T05:40:42;99287.78;;;8.25;73.21
76126;BME280;65174;48.138;21.002;2023-03-23T05:43:49;99288.75;;;8.22;72.98
76126;BME280;65174;48.138;21.002;2023-03-23T05:47:05;99295.81;;;8.34;71.61
76126;BME280;65174;48.138;21.002;2023-03-23T05:50:08;99291.47;;;8.50;71.68
76126;BME280;65174;48.138;21.002;2023-03-23T05:53:14;99285.66;;;8.61;70.81
76126;BME280;65174;48.138;21.002;2023-03-23T05:56:15;99280.94;;;8.69;70.53
76126;BME280;65174;48.138;21.002;2023-03-23T05:59:39;99285.06;;;8.86;70.03
76126;BME280;65174;48.138;21.002;2023-03-23T06:02:46;99284.22;;;8.99;69.83
76126;BME280;65174;48.138;21.002;2023-03-23T06:05:53;99289.94;;;9.18;68.41
76126;BME280;65174;48.138;21.002;2023-03-23T06:08:59;99288.63;;;9.39;67.55
76126;BME280;65174;48.138;21.002;2023-03-23T06:20:55;99285.84;;;9.56;68.26
76126;BME280;65174;48.138;21.002;2023-03-23T06:24:07;99291.72;;;9.85;67.27
76126;BME280;65174;48.138;21.002;2023-03-23T06:27:08;99290.91;;;9.85;68.08
76126;BME280;65174;48.138;21.002;2023-03-23T06:30:10;99283.72;;;9.90;68.06
76126;BME280;65174;48.138;21.002;2023-03-23T06:33:12;99288.16;;;10.14;68.42
76126;BME280;65174;48.138;21.002;2023-03-23T06:36:42;99291.31;;;10.45;68.20
76126;BME280;65174;48.138;21.002;2023-03-23T06:39:58;99291.66;;;10.90;65.51
76126;BME280;65174;48.138;21.002;2023-03-23T06:43:04;99292.25;;;10.94;66.41
76126;BME280;65174;48.138;21.002;2023-03-23T06:46:21;99304.84;;;10.73;66.49
76126;BME280;65174;48.138;21.002;2023-03-23T06:49:31;99295.47;;;10.47;67.82
76126;BME280;65174;48.138;21.002;2023-03-23T06:52:51;99307.75;;;10.69;67.15
76126;BME280;65174;48.138;21.002;2023-03-23T06:55:53;99317.88;;;10.72;67.96
76126;BME280;65174;48.138;21.002;2023-03-23T06:58:54;99319.09;;;11.29;66.30
76126;BME280;65174;48.138;21.002;2023-03-23T07:01:57;99320.31;;;11.36;65.64
76126;BME280;65174;48.138;21.002;2023-03-23T07:04:59;99325.41;;;11.86;64.90
76126;BME280;65174;48.138;21.002;2023-03-23T07:08:02;99322.97;;;11.60;64.81
76126;BME280;65174;48.138;21.002;2023-03-23T07:11:15;99319.66;;;11.70;64.50
76126;BME280;65174;48.138;21.002;2023-03-23T07:14:16;99317.19;;;11.92;63.82
76126;BME280;65174;48.138;21.002;2023-03-23T07:17:18;99310.81;;;12.09;61.04
76126;BME280;65174;48.138;21.002;2023-03-23T07:20:36;99308.72;;;12.38;59.09
76126;BME280;65174;48.138;21.002;2023-03-23T07:23:37;99321.50;;;12.63;57.86
76126;BME280;65174;48.138;21.002;2023-03-23T07:26:41;99312.88;;;12.28;59.75
76126;BME280;65174;48.138;21.002;2023-03-23T07:29:42;99316.38;;;12.96;57.90
76126;BME280;65174;48.138;21.002;2023-03-23T07:32:52;99309.53;;;12.95;58.57
76126;BME280;65174;48.138;21.002;2023-03-23T07:35:55;99321.59;;;12.61;59.43
76126;BME280;65174;48.138;21.002;2023-03-23T07:38:56;99327.72;;;13.06;58.33
76126;BME280;65174;48.138;21.002;2023-03-23T07:41:58;99330.31;;;13.28;57.51
76126;BME280;65174;48.138;21.002;2023-03-23T07:45:16;99326.91;;;13.39;56.35
76126;BME280;65174;48.138;21.002;2023-03-23T07:48:17;99335.72;;;13.59;57.48
76126;BME280;65174;48.138;21.002;2023-03-23T07:51:19;99330.56;;;14.01;54.92
76126;BME280;65174;48.138;21.002;2023-03-23T07:54:24;99326.72;;;14.39;55.40
76126;BME280;65174;48.138;21.002;2023-03-23T07:57:48;99330.94;;;14.81;54.15
76126;BME280;65174;48.138;21.002;2023-03-23T08:00:51;99338.94;;;15.09;53.96
76126;BME280;65174;48.138;21.002;2023-03-23T08:03:55;99333.97;;;14.76;53.12
76126;BME280;65174;48.138;21.002;2023-03-23T08:07:10;99336.56;;;14.76;53.86
76126;BME280;65174;48.138;21.002;2023-03-23T08:10:48;99338.19;;;15.58;51.71
76126;BME280;65174;48.138;21.002;2023-03-23T08:14:08;99339.53;;;15.43;50.77
76126;BME280;65174;48.138;21.002;2023-03-23T08:17:28;99331.44;;;15.86;50.40
76126;BME280;65174;48.138;21.002;2023-03-23T08:20:55;99333.25;;;15.85;49.84
76126;BME280;65174;48.138;21.002;2023-03-23T08:24:25;99340.84;;;15.68;49.46
76126;BME280;65174;48.138;21.002;2023-03-23T08:27:53;99332.59;;;15.53;49.78
76126;BME280;65174;48.138;21.002;2023-03-23T08:31:14;99333.72;;;15.70;50.26
76126;BME280;65174;48.138;21.002;2023-03-23T08:34:34;99328.06;;;15.46;49.56
76126;BME280;65174;48.138;21.002;2023-03-23T08:37:55;99331.53;;;15.65;48.47
76126;BME280;65174;48.138;21.002;2023-03-23T08:41:11;99332.84;;;16.00;47.98
76126;BME280;65174;48.138;21.002;2023-03-23T08:44:12;99326.16;;;16.16;47.38
76126;BME280;65174;48.138;21.002;2023-03-23T08:47:40;99316.13;;;16.21;47.71
76126;BME280;65174;48.138;21.002;2023-03-23T08:51:05;99328.75;;;16.45;47.04
76126;BME280;65174;48.138;21.002;2023-03-23T08:54:39;99324.91;;;16.87;46.74
76126;BME280;65174;48.138;21.002;2023-03-23T08:57:56;99338.50;;;16.62;46.76
76126;BME280;65174;48.138;21.002;2023-03-23T09:01:21;99332.41;;;17.00;44.92
76126;BME280;65174;48.138;21.002;2023-03-23T09:04:48;99336.63;;;17.10;44.72
76126;BME280;65174;48.138;21.002;2023-03-23T09:07:59;99343.09;;;16.97;45.17
76126;BME280;65174;48.138;21.002;2023-03-23T09:11:04;99342.75;;;16.73;45.24
76126;BME280;65174;48.138;21.002;2023-03-23T09:14:07;99336.22;;;17.05;44.91
76126;BME280;65174;48.138;21.002;2023-03-23T09:17:09;99337.28;;;17.22;44.21
76126;BME280;65174;48.138;21.002;2023-03-23T09:20:16;99341.22;;;17.26;44.84
76126;BME280;65174;48.138;21.002;2023-03-23T09:23:19;99341.94;;;17.28;44.68
76126;BME280;65174;48.138;21.002;2023-03-23T09:26:21;99341.44;;;17.05;44.49
76126;BME280;65174;48.138;21.002;2023-03-23T09:29:22;99329.84;;;16.90;44.96
76126;BME280;65174;48.138;21.002;2023-03-23T09:32:23;99329.41;;;16.95;45.30
76126;BME280;65174;48.138;21.002;2023-03-23T09:35:25;99331.31;;;16.93;45.33
76126;BME280;65174;48.138;21.002;2023-03-23T09:38:26;99329.91;;;17.08;44.47
76126;BME280;65174;48.138;21.002;2023-03-23T09:45:03;99337.66;;;16.81;44.77
76126;BME280;65174;48.138;21.002;2023-03-23T09:54:35;99318.97;;;17.04;45.54
76126;BME280;65174;48.138;21.002;2023-03-23T09:57:51;99313.59;;;17.06;44.91
76126;BME280;65174;48.138;21.002;2023-03-23T10:01:04;99310.25;;;17.60;44.43
76126;BME280;65174;48.138;21.002;2023-03-23T10:07:24;99302.78;;;17.37;44.75
76126;BME280;65174;48.138;21.002;2023-03-23T10:10:35;99299.72;;;17.52;43.26
76126;BME280;65174;48.138;21.002;2023-03-23T10:37:24;99293.34;;;18.26;41.42
76126;BME280;65174;48.138;21.002;2023-03-23T10:40:30;99299.75;;;18.49;40.13
76126;BME280;65174;48.138;21.002;2023-03-23T10:43:33;99292.06;;;18.48;41.21
76126;BME280;65174;48.138;21.002;2023-03-23T10:49:59;99277.50;;;18.88;40.53
76126;BME280;65174;48.138;21.002;2023-03-23T10:53:15;99276.41;;;18.73;40.30
76126;BME280;65174;48.138;21.002;2023-03-23T10:56:43;99286.28;;;19.13;38.99
76126;BME280;65174;48.138;21.002;2023-03-23T10:59:47;99279.69;;;19.01;39.17
76126;BME280;65174;48.138;21.002;2023-03-23T11:06:02;99265.53;;;19.12;38.11
76126;BME280;65174;48.138;21.002;2023-03-23T11:09:13;99276.75;;;19.04;38.20
76126;BME280;65174;48.138;21.002;2023-03-23T11:12:17;99264.63;;;18.95;38.51
76126;BME280;65174;48.138;21.002;2023-03-23T11:15:37;99270.03;;;18.50;39.75
76126;BME280;65174;48.138;21.002;2023-03-23T11:18:42;99250.38;;;18.64;39.59
76126;BME280;65174;48.138;21.002;2023-03-23T11:22:05;99255.63;;;18.46;40.86
76126;BME280;65174;48.138;21.002;2023-03-23T11:25:09;99259.50;;;18.42;40.19
76126;BME280;65174;48.138;21.002;2023-03-23T11:28:13;99242.34;;;18.57;37.79
76126;BME280;65174;48.138;21.002;2023-03-23T11:31:14;99247.28;;;18.43;39.62
76126;BME280;65174;48.138;21.002;2023-03-23T11:34:19;99251.34;;;18.63;39.69
76126;BME280;65174;48.138;21.002;2023-03-23T11:40:27;99244.94;;;18.40;39.95
76126;BME280;65174;48.138;21.002;2023-03-23T11:43:34;99244.50;;;18.62;39.23
76126;BME280;65174;48.138;21.002;2023-03-23T11:46:44;99241.97;;;18.52;39.98
76126;BME280;65174;48.138;21.002;2023-03-23T11:56:45;99228.25;;;18.76;39.30
76126;BME280;65174;48.138;21.002;2023-03-23T11:59:46;99228.34;;;18.23;40.13
76126;BME280;65174;48.138;21.002;2023-03-23T12:27:16;99214.09;;;18.86;39.70
76126;BME280;65174;48.138;21.002;2023-03-23T12:30:32;99209.41;;;18.98;39.12
76126;BME280;65174;48.138;21.002;2023-03-23T12:47:08;99196.28;;;19.32;38.86
76126;BME280;65174;48.138;21.002;2023-03-23T12:53:23;99192.69;;;19.25;38.95
76126;BME280;65174;48.138;21.002;2023-03-23T12:56:37;99189.03;;;19.10;38.80
76126;BME280;65174;48.138;21.002;2023-03-23T12:59:53;99190.41;;;19.30;38.40
76126;BME280;65174;48.138;21.002;2023-03-23T13:03:10;99183.28;;;19.06;38.03
76126;BME280;65174;48.138;21.002;2023-03-23T13:06:25;99181.72;;;18.87;39.66
76126;BME280;65174;48.138;21.002;2023-03-23T13:13:01;99180.47;;;18.58;41.09
76126;BME280;65174;48.138;21.002;2023-03-23T13:16:49;99183.81;;;18.76;41.31
76126;BME280;65174;48.138;21.002;2023-03-23T13:26:41;99165.66;;;19.74;38.39
76126;BME280;65174;48.138;21.002;2023-03-23T13:29:48;99163.03;;;19.74;37.94
76126;BME280;65174;48.138;21.002;2023-03-23T13:32:51;99153.41;;;19.74;37.71
76126;BME280;65174;48.138;21.002;2023-03-23T13:35:55;99155.84;;;19.60;38.19
76126;BME280;65174;48.138;21.002;2023-03-23T14:12:15;99136.81;;;18.84;39.54
76126;BME280;65174;48.138;21.002;2023-03-23T14:15:18;99130.66;;;19.01;38.74
76126;BME280;65174;48.138;21.002;2023-03-23T14:18:21;99123.84;;;19.16;39.24
76126;BME280;65174;48.138;21.002;2023-03-23T14:21:32;99127.38;;;18.99;38.94
76126;BME280;65174;48.138;21.002;2023-03-23T14:24:39;99121.47;;;18.81;39.18
76126;BME280;65174;48.138;21.002;2023-03-23T14:27:41;99114.09;;;18.76;39.71
76126;BME280;65174;48.138;21.002;2023-03-23T14:30:42;99122.88;;;18.75;39.83
76126;BME280;65174;48.138;21.002;2023-03-23T14:33:43;99115.66;;;18.61;39.19
76126;BME280;65174;48.138;21.002;2023-03-23T14:36:45;99111.81;;;18.48;40.06
76126;BME280;65174;48.138;21.002;2023-03-23T14:39:48;99107.56;;;18.47;40.25
76126;BME280;65174;48.138;21.002;2023-03-23T14:42:50;99101.53;;;18.46;39.79
76126;BME280;65174;48.138;21.002;2023-03-23T14:45:56;99100.59;;;18.30;40.08
76126;BME280;65174;48.138;21.002;2023-03-23T14:49:04;99096.91;;;18.40;40.32
76126;BME280;65174;48.138;21.002;2023-03-23T14:52:17;99097.53;;;18.34;40.90
76126;BME280;65174;48.138;21.002;2023-03-23T14:55:22;99107.25;;;18.24;41.86
76126;BME280;65174;48.138;21.002;2023-03-23T14:58:23;99108.72;;;18.26;41.95
76126;BME280;65174;48.138;21.002;2023-03-23T15:01:30;99100.97;;;18.09;41.52
76126;BME280;65174;48.138;21.002;2023-03-23T15:04:32;99106.59;;;18.22;41.83
76126;BME280;65174;48.138;21.002;2023-03-23T15:07:35;99105.94;;;18.20;42.30
76126;BME280;65174;48.138;21.002;2023-03-23T15:10:37;99104.28;;;18.19;41.86
76126;BME280;65174;48.138;21.002;2023-03-23T15:13:45;99101.97;;;17.90;41.96
76126;BME280;65174;48.138;21.002;2023-03-23T15:16:47;99103.53;;;18.01;41.66
76126;BME280;65174;48.138;21.002;2023-03-23T15:19:51;99097.00;;;17.79;41.80
76126;BME280;65174;48.138;21.002;2023-03-23T15:22:53;99100.03;;;17.92;41.20
76126;BME280;65174;48.138;21.002;2023-03-23T15:25:56;99085.25;;;17.58;42.12
76126;BME280;65174;48.138;21.002;2023-03-23T15:32:26;99088.75;;;17.48;42.14
76126;BME280;65174;48.138;21.002;2023-03-23T15:35:33;99083.25;;;17.52;42.14
76126;BME280;65174;48.138;21.002;2023-03-23T15:38:36;99094.75;;;17.49;42.30
76126;BME280;65174;48.138;21.002;2023-03-23T15:41:49;99090.09;;;17.53;42.56
76126;BME280;65174;48.138;21.002;2023-03-23T15:48:11;99096.84;;;17.45;42.77
76126;BME280;65174;48.138;21.002;2023-03-23T15:51:12;99106.63;;;17.43;42.79
76126;BME280;65174;48.138;21.002;2023-03-23T16:09:01;99117.97;;;16.90;44.52
76126;BME280;65174;48.138;21.002;2023-03-23T16:12:04;99120.16;;;16.85;44.72
76126;BME280;65174;48.138;21.002;2023-03-23T16:15:07;99113.59;;;16.81;44.76
76126;BME280;65174;48.138;21.002;2023-03-23T16:18:18;99113.91;;;16.78;44.77
76126;BME280;65174;48.138;21.002;2023-03-23T16:21:21;99118.97;;;16.79;44.93
76126;BME280;65174;48.138;21.002;2023-03-23T16:24:24;99117.66;;;16.65;45.52
76126;BME280;65174;48.138;21.002;2023-03-23T16:27:26;99117.03;;;16.44;46.18
76126;BME280;65174;48.138;21.002;2023-03-23T16:30:32;99130.13;;;16.16;46.95
76126;BME280;65174;48.138;21.002;2023-03-23T16:33:35;99137.41;;;16.12;47.37
76126;BME280;65174;48.138;21.002;2023-03-23T16:36:37;99134.13;;;16.10;47.22
76126;BME280;65174;48.138;21.002;2023-03-23T16:39:39;99139.22;;;15.83;47.99
76126;BME280;65174;48.138;21.002;2023-03-23T16:42:41;99136.50;;;15.75;48.23
76126;BME280;65174;48.138;21.002;2023-03-23T16:45:45;99139.34;;;15.81;48.13
76126;BME280;65174;48.138;21.002;2023-03-23T16:48:47;99139.66;;;15.78;48.42
76126;BME280;65174;48.138;21.002;2023-03-23T16:51:50;99144.44;;;15.73;48.10
76126;BME280;65174;48.138;21.002;2023-03-23T16:54:53;99142.38;;;15.67;48.29
76126;BME280;65174;48.138;21.002;2023-03-23T16:57:55;99144.25;;;15.37;49.11
76126;BME280;65174;48.138;21.002;2023-03-23T17:01:16;99139.84;;;15.28;49.59
76126;BME280;65174;48.138;21.002;2023-03-23T17:04:18;99144.66;;;15.32;49.07
76126;BME280;65174;48.138;21.002;2023-03-23T17:07:21;99144.50;;;15.24;49.64
76126;BME280;65174;48.138;21.002;2023-03-23T17:10:28;99143.13;;;15.20;49.64
76126;BME280;65174;48.138;21.002;2023-03-23T17:13:31;99137.91;;;15.10;49.46
76126;BME280;65174;48.138;21.002;2023-03-23T17:16:33;99138.16;;;14.98;49.96
76126;BME280;65174;48.138;21.002;2023-03-23T17:19:55;99137.84;;;14.91;49.45
76126;BME280;65174;48.138;21.002;2023-03-23T17:23:57;99134.84;;;14.86;49.30
76126;BME280;65174;48.138;21.002;2023-03-23T17:27:59;99148.75;;;14.76;49.57
76126;BME280;65174;48.138;21.002;2023-03-23T17:32:01;99148.28;;;14.61;49.94
76126;BME280;65174;48.138;21.002;2023-03-23T17:36:05;99150.81;;;14.52;49.94
76126;BME280;65174;48.138;21.002;2023-03-23T17:39:18;99153.16;;;14.45;50.20
76126;BME280;65174;48.138;21.002;2023-03-23T17:42:20;99156.28;;;14.49;50.13
76126;BME280;65174;48.138;21.002;2023-03-23T17:45:23;99149.13;;;14.41;49.93
76126;BME280;65174;48.138;21.002;2023-03-23T17:48:25;99142.56;;;14.37;50.15
76126;BME280;65174;48.138;21.002;2023-03-23T17:51:27;99159.44;;;14.52;49.52
76126;BME280;65174;48.138;21.002;2023-03-23T17:54:30;99160.66;;;14.48;49.78
76126;BME280;65174;48.138;21.002;2023-03-23T17:57:32;99163.59;;;14.34;50.38
76126;BME280;65174;48.138;21.002;2023-03-23T18:00:36;99161.91;;;14.12;51.04
76126;BME280;65174;48.138;21.002;2023-03-23T18:03:38;99163.25;;;14.07;51.49
76126;BME280;65174;48.138;21.002;2023-03-23T18:06:41;99169.97;;;14.09;51.87
76126;BME280;65174;48.138;21.002;2023-03-23T18:09:44;99171.03;;;14.07;52.21
76126;BME280;65174;48.138;21.002;2023-03-23T18:12:48;99173.50;;;13.88;52.88
76126;BME280;65174;48.138;21.002;2023-03-23T18:15:52;99168.94;;;13.80;53.27
76126;BME280;65174;48.138;21.002;2023-03-23T18:18:55;99175.75;;;13.81;53.28
76126;BME280;65174;48.138;21.002;2023-03-23T18:21:57;99172.41;;;13.70;53.56
76126;BME280;65174;48.138;21.002;2023-03-23T18:24:59;99174.69;;;13.84;53.44
76126;BME280;65174;48.138;21.002;2023-03-23T18:28:03;99166.28;;;13.91;53.05
76126;BME280;65174;48.138;21.002;2023-03-23T18:31:11;99170.06;;;13.87;53.14
76126;BME280;65174;48.138;21.002;2023-03-23T18:34:14;99177.72;;;13.89;53.20
76126;BME280;65174;48.138;21.002;2023-03-23T18:37:18;99180.94;;;13.81;53.42
76126;BME280;65174;48.138;21.002;2023-03-23T18:40:21;99180.56;;;13.86;53.50
76126;BME280;65174;48.138;21.002;2023-03-23T18:43:24;99167.25;;;13.90;53.14
76126;BME280;65174;48.138;21.002;2023-03-23T18:46:27;99168.53;;;13.85;53.51
76126;BME280;65174;48.138;21.002;2023-03-23T18:49:29;99165.84;;;13.86;53.34
76126;BME280;65174;48.138;21.002;2023-03-23T18:52:34;99171.28;;;13.83;53.17
76126;BME280;65174;48.138;21.002;2023-03-23T18:55:37;99180.81;;;13.83;53.26
76126;BME280;65174;48.138;21.002;2023-03-23T18:58:40;99172.28;;;13.71;53.54
76126;BME280;65174;48.138;21.002;2023-03-23T19:01:43;99169.59;;;13.62;53.75
76126;BME280;65174;48.138;21.002;2023-03-23T19:04:49;99173.88;;;13.51;54.08
76126;BME280;65174;48.138;21.002;2023-03-23T19:07:51;99167.56;;;13.44;54.41
76126;BME280;65174;48.138;21.002;2023-03-23T19:11:00;99170.13;;;13.44;54.46
76126;BME280;65174;48.138;21.002;2023-03-23T19:14:03;99170.88;;;13.35;54.80
76126;BME280;65174;48.138;21.002;2023-03-23T19:17:07;99166.38;;;13.37;54.79
76126;BME280;65174;48.138;21.002;2023-03-23T19:20:10;99175.97;;;13.15;55.47
76126;BME280;65174;48.138;21.002;2023-03-23T19:23:26;99176.31;;;12.99;55.79
76126;BME280;65174;48.138;21.002;2023-03-23T19:26:34;99171.25;;;12.98;55.67
76126;BME280;65174;48.138;21.002;2023-03-23T19:29:39;99166.91;;;12.87;56.27
76126;BME280;65174;48.138;21.002;2023-03-23T19:32:42;99175.03;;;12.83;56.33
76126;BME280;65174;48.138;21.002;2023-03-23T19:35:48;99168.22;;;12.82;56.34
76126;BME280;65174;48.138;21.002;2023-03-23T19:39:02;99177.38;;;12.74;56.53